Las horas y fechas están en horario UTC.
Sumar 1 hora en el horario de invierno y 2 horas en el de verano.

Informes METAR cercanos

 

LEZL - Sevilla (civ/Mil, Spain
Distance from station: NNE 24km
Actualización: 12/08/2022 15:30
Despejado
Despejado
 Viento del O
Viento: O 7 km/h
Temperatura: 38°C
Rocío: 14°C
Humedad: 24%
Barómetro: 1011 hPa
Resumen: Despejado
Visibility: greater than 10 km
2022/08/12 15:30 LEZL 121530Z 28004KT CAVOK 38/14 Q1011 NOSIG
LEMO - Moron (sp-Usafb), Spain
Distance from station: E 38km
Actualización: 12/08/2022 15:30
Despejado
Despejado
 Viento del ONO
Viento: ONO 11 km/h
Temperatura: 38°C
Rocío: 16°C
Humedad: 27%
Barómetro: 1011 hPa
Resumen: Despejado
Visibility: greater than 10 km
2022/08/12 15:30 LEMO 121530Z 30006KT 260V350 CAVOK 38/16 Q1011 NOSIG
LEJR - Jerez (civ/Mil), Spain
Distance from station: S 53km
Actualización: 12/08/2022 15:30
Light thunderstorm, Precipitación, Few clouds
Light thunderstorm, Precipitación, Few clouds
 Viento del S
Viento: S 13 km/h
Temperatura: 35°C
Heat Index: 38°C
Rocío: 21°C
Humedad: 44%
Barómetro: 1011 hPa
Resumen: Light thunderstorm, Precipitación
Clouds: Few Clouds
Visibility: 10 km
Cloud details: Few Clouds 1524 m
2022/08/12 15:30 LEJR 121530Z 18007KT 150V210 9999 -TSRA FEW050CB 35/21 Q1011
 
LERT - Rota Naval Stati, Spain
Distance from station: SSO 71km
Actualización: 12/08/2022 15:30
Nearby thunderstorm, Muy nuboso
Nearby thunderstorm, Muy nuboso
 Viento del O
Viento: O 19 km/h
Temperatura: 28°C
Heat Index: 32°C
Rocío: 24°C
Humedad: 79%
Barómetro: 1012 hPa
Resumen: Nearby Thunderstorm
Clouds: Muy nuboso
Visibility: 10 km
Cloud details: Muy nuboso 1311 m
2022/08/12 15:30 LERT 121530Z 28010KT 250V310 9999 VCTS BKN043CB 28/24 Q1012 NOSIG
LEBA - Cordoba Airport, Spain
Distance from station: ENE 128km
Actualización: 12/08/2022 15:30
Despejado
Despejado
 Viento del ONO
Viento: ONO 7 km/h
Temperatura: 39°C
Rocío: 14°C
Humedad: 23%
Barómetro: 1011 hPa
Resumen: Despejado
Visibility: greater than 10 km
2022/08/12 15:30 LEBA 121530Z 29004KT CAVOK 39/14 Q1011
LXGB - Gibraltar (civ/M, Gibraltar
Distance from station: SSE 137km
Actualización: 12/08/2022 15:20
Despejado
Despejado
 Viento del ESE
Viento: ESE 15 km/h
Temperatura: 29°C
Heat Index: 32°C
Rocío: 22°C
Humedad: 66%
Barómetro: 1013 hPa
Resumen: Despejado
Visibility: greater than 10 km
2022/08/12 15:20 LXGB 121520Z 11008KT CAVOK 29/22 Q1013 NOSIG RMK BLU BLU
 
LEMG - Malaga (civ/Mil), Spain
Distance from station: ESE 150km
Actualización: 12/08/2022 15:30
Despejado
Despejado
 Viento del SE
Viento: SE 19 km/h
Temperatura: 31°C
Heat Index: 34°C
Rocío: 21°C
Humedad: 55%
Barómetro: 1013 hPa
Resumen: Despejado
Visibility: greater than 10 km
2022/08/12 15:30 LEMG 121530Z 13010KT 110V170 CAVOK 31/21 Q1013 NOSIG
GMTT - Tangier/Boukhalf, Morocco
Distance from station: S 169km
Actualización: 12/08/2022 15:30
Parcialmente nuboso
Parcialmente nuboso
 Viento del NE
Viento: NE 31 km/h
Temperatura: 31°C
Heat Index: 37°C
Rocío: 24°C
Humedad: 66%
Barómetro: 1011 hPa
Clouds: Parcialmente nuboso
Visibility: 8 km
2022/08/12 15:30 GMTT 121530Z 04017KT 8000 NSC 31/24 Q1011 NOSIG
LPFR - Faro, Portugal
Distance from station: O 172km
Actualización: 12/08/2022 15:30
Despejado
Despejado
 Viento del OSO
Viento: OSO 17 km/h
Temperatura: 25°C
Rocío: 18°C
Humedad: 65%
Barómetro: 1013 hPa
Resumen: Despejado
Visibility: greater than 10 km
2022/08/12 15:30 LPFR 121530Z 25009KT CAVOK 25/18 Q1013
 
LPBJ - Beja (por/Ger-Af, Portugal
Distance from station: ONO 192km
Actualización: 12/08/2022 15:00
Despejado
Despejado
 Viento del OSO
Viento: OSO 9 km/h
Temperatura: 33°C
Rocío: 9°C
Humedad: 23%
Barómetro: 1014 hPa
Resumen: Despejado
Visibility: greater than 10 km
2022/08/12 15:00 LPBJ 121500Z 25005KT 200V010 CAVOK 33/09 Q1014
LEBZ - Talavera Ab/Bada, Spain
Distance from station: NNO 194km
Actualización: 12/08/2022 15:30
Despejado
Despejado
 Viento del ONO
Viento: ONO 9 km/h
Temperatura: 37°C
Rocío: 16°C
Humedad: 29%
Barómetro: 1012 hPa
Resumen: Despejado
Visibility: greater than 10 km
2022/08/12 15:30 LEBZ 121530Z 29005KT CAVOK 37/16 Q1012
LEMD - Madrid/Barajas, Spain
Distance from station: NE 415km
Actualización: 12/08/2022 15:30
Parcialmente nuboso
Parcialmente nuboso
 Viento del SO
Viento: SO 22 km/h
Temperatura: 37°C
Rocío: 9°C
Humedad: 18%
Barómetro: 1015 hPa
Clouds: Parcialmente nuboso
Visibility: 9 km
2022/08/12 15:30 LEMD 121530Z 23012KT 9000 NSC 37/09 Q1015 NOSIG